createdAt,value
2018-07-24T00:00:38.937Z,64.65
2018-07-24T00:03:07.605Z,64.57
2018-07-24T00:05:36.213Z,65.10
2018-07-24T00:08:04.879Z,64.75
2018-07-24T00:10:33.538Z,64.81
2018-07-24T00:13:02.149Z,65.35
2018-07-24T00:15:30.734Z,65.30
2018-07-24T00:17:59.557Z,65.83
2018-07-24T00:20:29.209Z,65.88
2018-07-24T00:22:57.844Z,65.38
2018-07-24T00:25:26.542Z,65.55
2018-07-24T00:27:55.202Z,65.51
2018-07-24T00:30:23.837Z,65.77
2018-07-24T00:32:52.540Z,66.16
2018-07-24T00:35:21.820Z,66.05
2018-07-24T00:37:50.490Z,65.83
2018-07-24T00:40:19.140Z,65.67
2018-07-24T00:42:47.837Z,66.08
2018-07-24T00:45:16.544Z,65.69
2018-07-24T00:47:45.189Z,66.23
2018-07-24T00:50:13.861Z,66.26
2018-07-24T00:52:42.525Z,65.94
2018-07-24T00:55:11.156Z,66.19
2018-07-24T00:57:40.641Z,65.92
2018-07-24T01:00:09.456Z,65.92
2018-07-24T01:02:38.161Z,66.53
2018-07-24T01:05:06.824Z,66.77
2018-07-24T01:07:38.210Z,66.46
2018-07-24T01:10:08.222Z,66.94
2018-07-24T01:12:36.822Z,66.66
2018-07-24T01:15:06.341Z,67.22
2018-07-24T01:17:35.153Z,67.69
2018-07-24T01:20:04.157Z,68.22
2018-07-24T01:22:32.763Z,67.62
2018-07-24T01:25:01.391Z,67.91
2018-07-24T01:27:30.180Z,67.87
2018-07-24T01:29:58.901Z,68.25
2018-07-24T01:32:27.501Z,68.11
2018-07-24T01:34:56.129Z,68.31
2018-07-24T01:37:24.765Z,68.30
2018-07-24T01:39:53.437Z,68.82
2018-07-24T01:42:22.099Z,69.07
2018-07-24T01:44:50.718Z,68.50
2018-07-24T01:47:19.341Z,68.67
2018-07-24T01:49:47.942Z,68.38
2018-07-24T01:52:16.642Z,68.54
2018-07-24T01:54:45.497Z,68.99
2018-07-24T01:57:14.123Z,69.38
2018-07-24T01:59:42.737Z,68.83
2018-07-24T02:02:11.379Z,69.49
2018-07-24T02:04:40.017Z,69.21
2018-07-24T02:07:09.358Z,69.56
2018-07-24T02:09:38.075Z,69.92
2018-07-24T02:12:06.709Z,69.68
2018-07-24T02:14:35.300Z,70.00
2018-07-24T02:17:03.981Z,69.31
2018-07-24T02:19:32.671Z,69.75
2018-07-24T02:22:01.302Z,69.14
2018-07-24T02:24:29.966Z,69.67
2018-07-24T02:26:58.957Z,69.56
2018-07-24T02:29:27.597Z,69.47
2018-07-24T02:31:56.256Z,69.40
2018-07-24T02:34:24.833Z,69.52
2018-07-24T02:36:53.443Z,69.68
2018-07-24T02:39:22.078Z,69.28
2018-07-24T02:41:50.766Z,69.58
2018-07-24T02:44:19.401Z,68.61
2018-07-24T02:46:48.398Z,68.85
2018-07-24T02:49:17.002Z,68.91
2018-07-24T02:51:45.611Z,69.05
2018-07-24T02:54:14.282Z,69.38
2018-07-24T02:56:42.886Z,68.96
2018-07-24T02:59:11.660Z,69.36
2018-07-24T03:01:40.426Z,69.63
2018-07-24T03:04:09.041Z,69.64
2018-07-24T03:06:37.694Z,69.37
2018-07-24T03:09:08.695Z,69.53
2018-07-24T03:11:37.623Z,69.17
2018-07-24T03:14:06.594Z,68.92
2018-07-24T03:16:35.255Z,69.43
2018-07-24T03:19:03.865Z,69.18
2018-07-24T03:21:32.528Z,69.03
2018-07-24T03:24:01.170Z,68.86
2018-07-24T03:26:29.877Z,68.95
2018-07-24T03:28:58.458Z,68.99
2018-07-24T03:31:27.144Z,69.28
2018-07-24T03:33:55.805Z,69.14
2018-07-24T03:36:24.443Z,69.20
2018-07-24T03:38:53.106Z,69.46
2018-07-24T03:41:21.753Z,69.09
2018-07-24T03:43:50.441Z,69.18
2018-07-24T03:46:19.081Z,68.96
2018-07-24T03:48:47.709Z,69.12
2018-07-24T03:51:16.320Z,68.75
2018-07-24T03:53:45.038Z,68.37
2018-07-24T03:56:14.438Z,67.55
2018-07-24T03:58:43.102Z,67.83
2018-07-24T04:01:11.731Z,66.94
2018-07-24T04:03:40.447Z,66.99
2018-07-24T04:06:09.189Z,66.87
2018-07-24T04:08:37.860Z,65.92
2018-07-24T04:11:06.438Z,65.56
2018-07-24T04:13:35.094Z,65.32
2018-07-24T04:16:03.782Z,65.50
2018-07-24T04:18:39.602Z,64.92
2018-07-24T04:21:08.254Z,64.58
2018-07-24T04:23:36.870Z,64.62
2018-07-24T04:26:05.499Z,64.12
2018-07-24T04:28:34.185Z,63.84
2018-07-24T04:31:02.863Z,63.40
2018-07-24T04:33:32.201Z,63.61
2018-07-24T04:36:01.620Z,62.71
2018-07-24T04:38:30.473Z,62.94
2018-07-24T04:40:59.985Z,62.47
2018-07-24T04:43:29.090Z,62.57
2018-07-24T04:45:57.999Z,62.45
2018-07-24T04:48:26.756Z,62.13
2018-07-24T04:50:55.410Z,61.37
2018-07-24T04:53:24.136Z,61.70
2018-07-24T04:55:52.795Z,61.54
2018-07-24T04:58:23.008Z,60.94
2018-07-24T05:00:51.660Z,60.24
2018-07-24T05:03:20.384Z,59.37
2018-07-24T05:05:48.973Z,59.45
2018-07-24T05:08:17.770Z,58.58
2018-07-24T05:10:46.390Z,57.29
2018-07-24T05:13:15.034Z,57.24
2018-07-24T05:15:43.695Z,56.66
2018-07-24T05:18:13.625Z,55.83
2018-07-24T05:20:42.601Z,55.82
2018-07-24T05:23:11.591Z,56.38
2018-07-24T05:25:40.239Z,55.86
2018-07-24T05:28:08.907Z,56.37
2018-07-24T05:30:37.585Z,55.94
2018-07-24T05:33:06.547Z,55.08
2018-07-24T05:35:35.158Z,54.94
2018-07-24T05:38:04.366Z,55.23
2018-07-24T05:40:33.018Z,55.43
2018-07-24T05:43:01.898Z,55.20
2018-07-24T05:45:30.544Z,56.23
2018-07-24T05:47:59.178Z,55.77
2018-07-24T05:50:30.141Z,55.90
2018-07-24T05:52:59.077Z,55.41
2018-07-24T05:55:29.562Z,55.93
2018-07-24T05:57:58.253Z,55.58
2018-07-24T06:00:27.838Z,55.17
2018-07-24T06:02:56.503Z,54.52
2018-07-24T06:05:25.219Z,55.25
2018-07-24T06:07:53.981Z,54.16
2018-07-24T06:10:23.994Z,54.91
2018-07-24T06:12:52.802Z,53.72
2018-07-24T06:15:22.433Z,53.15
2018-07-24T06:17:52.763Z,53.18
2018-07-24T06:20:21.659Z,53.32
2018-07-24T06:22:50.326Z,52.96
2018-07-24T06:25:19.187Z,53.06
2018-07-24T06:27:47.823Z,53.10
2018-07-24T06:30:16.462Z,53.37
2018-07-24T06:32:45.391Z,52.93
2018-07-24T06:35:14.025Z,53.70
2018-07-24T06:37:43.273Z,54.19
2018-07-24T06:40:11.964Z,53.99
2018-07-24T06:42:41.001Z,53.81
2018-07-24T06:45:09.663Z,53.30
2018-07-24T06:47:38.315Z,52.55
2018-07-24T06:50:07.024Z,52.59
2018-07-24T06:52:35.649Z,52.88
2018-07-24T06:55:04.489Z,52.35
2018-07-24T06:57:39.477Z,51.83
2018-07-24T07:00:08.290Z,51.16
2018-07-24T07:02:36.941Z,51.07
2018-07-24T07:05:05.964Z,51.46
2018-07-24T07:07:34.683Z,50.21
2018-07-24T07:10:03.364Z,50.00
2018-07-24T07:12:32.304Z,50.05
2018-07-24T07:15:00.993Z,50.11
2018-07-24T07:17:30.854Z,50.18
2018-07-24T07:19:59.574Z,50.47
2018-07-24T07:22:28.322Z,50.68
2018-07-24T07:24:56.997Z,50.13
2018-07-24T07:27:25.604Z,51.18
2018-07-24T07:29:54.922Z,51.29
2018-07-24T07:32:23.765Z,50.54
2018-07-24T07:34:52.634Z,51.31
2018-07-24T07:37:21.456Z,51.00
2018-07-24T07:39:50.246Z,50.35
2018-07-24T07:42:18.983Z,50.67
2018-07-24T07:44:48.260Z,50.04
2018-07-24T07:47:17.349Z,49.85
2018-07-24T07:49:46.012Z,50.29
2018-07-24T07:52:15.332Z,50.69
2018-07-24T07:54:44.819Z,50.10
2018-07-24T07:57:13.623Z,49.71
2018-07-24T07:59:42.317Z,48.88
2018-07-24T08:02:11.012Z,48.63
2018-07-24T08:04:39.694Z,49.34
2018-07-24T08:07:09.194Z,50.04
2018-07-24T08:09:37.916Z,49.18
2018-07-24T08:12:06.726Z,49.28
2018-07-24T08:14:36.173Z,49.03
2018-07-24T08:17:04.866Z,48.58
2018-07-24T08:19:33.506Z,48.51
2018-07-24T08:22:02.139Z,48.67
2018-07-24T08:24:31.851Z,49.33
2018-07-24T08:27:00.533Z,48.32
2018-07-24T08:29:29.160Z,48.59
2018-07-24T08:31:57.876Z,48.08
2018-07-24T08:34:26.543Z,49.31
2018-07-24T08:36:55.217Z,48.61
2018-07-24T08:39:23.958Z,47.45
2018-07-24T08:41:52.638Z,47.35
2018-07-24T08:44:21.332Z,47.33
2018-07-24T08:46:50.036Z,47.22
2018-07-24T08:49:18.788Z,46.99
2018-07-24T08:51:47.533Z,47.77
2018-07-24T08:54:16.975Z,48.32
2018-07-24T08:56:45.495Z,47.89
2018-07-24T08:59:14.163Z,46.44
2018-07-24T09:01:42.849Z,46.33
2018-07-24T09:04:11.581Z,47.27
2018-07-24T09:06:40.344Z,47.05
2018-07-24T09:09:11.422Z,47.65
2018-07-24T09:11:40.473Z,47.50
2018-07-24T09:14:09.213Z,47.08
2018-07-24T09:16:38.365Z,46.14
2018-07-24T09:19:07.131Z,47.01
2018-07-24T09:21:36.042Z,47.40
2018-07-24T09:24:04.753Z,46.65
2018-07-24T09:26:33.542Z,46.98
2018-07-24T09:29:02.211Z,46.45
2018-07-24T09:31:30.927Z,46.27
2018-07-24T09:33:59.697Z,46.02
2018-07-24T09:36:28.414Z,45.45
2018-07-24T09:38:57.093Z,46.04
2018-07-24T09:41:26.023Z,45.72
2018-07-24T09:43:55.225Z,45.57
2018-07-24T09:46:23.876Z,44.30
2018-07-24T09:48:52.594Z,45.11
2018-07-24T09:51:21.787Z,44.25
2018-07-24T09:53:50.449Z,44.39
2018-07-24T09:56:19.258Z,44.96
2018-07-24T09:58:47.902Z,46.53
2018-07-24T10:01:21.669Z,45.72
2018-07-24T10:03:50.306Z,44.47
2018-07-24T10:06:19.691Z,44.86
2018-07-24T10:08:48.370Z,44.81
2018-07-24T10:11:17.887Z,43.94
2018-07-24T10:13:46.658Z,41.57
2018-07-24T10:16:15.313Z,42.40
2018-07-24T10:18:43.936Z,41.98
2018-07-24T10:21:12.639Z,41.50
2018-07-24T10:23:41.321Z,41.79
2018-07-24T10:26:10.088Z,41.93
2018-07-24T10:28:38.771Z,40.21
2018-07-24T10:31:07.738Z,39.98
2018-07-24T10:33:36.438Z,38.82
2018-07-24T10:36:05.543Z,39.18
2018-07-24T10:38:34.383Z,39.02
2018-07-24T10:41:03.046Z,38.42
2018-07-24T10:43:31.714Z,39.62
2018-07-24T10:46:00.971Z,39.69
2018-07-24T10:48:29.675Z,37.63
2018-07-24T10:50:58.629Z,36.94
2018-07-24T10:53:27.274Z,36.15
2018-07-24T10:55:55.939Z,35.56
2018-07-24T10:58:24.588Z,34.98
2018-07-24T11:00:53.277Z,35.07
2018-07-24T11:03:21.954Z,34.72
2018-07-24T11:05:50.649Z,34.88
2018-07-24T11:08:19.308Z,34.98
2018-07-24T11:10:47.975Z,34.35
2018-07-24T11:13:16.903Z,36.61
2018-07-24T11:15:45.574Z,39.39
2018-07-24T11:18:14.279Z,40.38
2018-07-24T11:20:42.933Z,40.66
2018-07-24T11:23:11.724Z,39.77
2018-07-24T11:25:40.334Z,39.44
2018-07-24T11:28:09.096Z,38.68
2018-07-24T11:30:37.777Z,37.38
2018-07-24T11:33:06.519Z,36.04
2018-07-24T11:35:35.260Z,35.28
2018-07-24T11:38:03.901Z,35.51
2018-07-24T11:40:32.615Z,35.97
2018-07-24T11:43:01.493Z,35.00
2018-07-24T11:45:30.169Z,34.43
2018-07-24T11:47:59.634Z,35.57
2018-07-24T11:50:28.323Z,36.23
2018-07-24T11:52:57.022Z,35.39
2018-07-24T11:55:25.700Z,34.58
2018-07-24T11:57:54.388Z,34.42
2018-07-24T12:00:23.057Z,33.74
2018-07-24T12:02:52.442Z,33.50
2018-07-24T12:05:21.077Z,32.49
2018-07-24T12:07:49.823Z,33.42
2018-07-24T12:10:18.460Z,33.45
2018-07-24T12:12:47.147Z,33.16
2018-07-24T12:15:15.910Z,33.30
2018-07-24T12:17:44.523Z,32.71
2018-07-24T12:20:13.169Z,31.46
2018-07-24T12:22:41.780Z,31.92
2018-07-24T12:25:10.417Z,32.01
2018-07-24T12:27:39.072Z,32.11
2018-07-24T12:30:07.745Z,31.76
2018-07-24T12:32:36.421Z,31.02
2018-07-24T12:35:05.770Z,30.74
2018-07-24T12:37:34.452Z,30.47
2018-07-24T12:40:03.314Z,31.49
2018-07-24T12:42:31.992Z,30.25
2018-07-24T12:45:00.621Z,30.07
2018-07-24T12:47:29.255Z,30.06
2018-07-24T12:49:57.954Z,29.52
2018-07-24T12:52:26.654Z,29.67
2018-07-24T12:54:55.333Z,28.60
2018-07-24T12:57:24.014Z,28.56
2018-07-24T12:59:52.812Z,27.68
2018-07-24T13:02:21.512Z,28.15
2018-07-24T13:04:50.168Z,28.85
2018-07-24T13:07:18.825Z,28.58
2018-07-24T13:09:47.451Z,27.38
2018-07-24T13:12:16.213Z,27.84
2018-07-24T13:14:44.896Z,28.43
2018-07-24T13:17:13.533Z,27.16
2018-07-24T13:19:42.810Z,27.57
2018-07-24T13:22:11.577Z,27.29
2018-07-24T13:24:40.277Z,27.33
2018-07-24T13:27:09.424Z,27.18
2018-07-24T13:29:38.047Z,26.36
2018-07-24T13:32:06.933Z,25.70
2018-07-24T13:34:35.530Z,26.10
2018-07-24T13:37:04.198Z,26.29
2018-07-24T13:39:32.993Z,25.29
2018-07-24T13:42:01.708Z,25.45
2018-07-24T13:44:30.418Z,26.00
2018-07-24T13:46:59.052Z,27.29
2018-07-24T13:49:27.735Z,26.97
2018-07-24T13:51:56.355Z,27.96
2018-07-24T13:54:25.010Z,27.53
2018-07-24T13:56:53.675Z,26.03
2018-07-24T13:59:22.310Z,26.54
2018-07-24T14:01:50.999Z,26.70
2018-07-24T14:04:19.637Z,27.32
2018-07-24T14:06:48.287Z,26.43
2018-07-24T14:09:16.945Z,25.89
2018-07-24T14:11:45.637Z,26.03
2018-07-24T14:14:14.350Z,25.01
2018-07-24T14:16:42.909Z,25.26
2018-07-24T14:19:11.614Z,24.78
2018-07-24T14:21:40.307Z,24.81
2018-07-24T14:24:08.931Z,26.09
2018-07-24T14:26:37.677Z,26.01
2018-07-24T14:29:06.340Z,26.17
2018-07-24T14:31:39.305Z,25.34
2018-07-24T14:34:08.057Z,25.95
2018-07-24T14:36:38.385Z,25.47
2018-07-24T14:39:16.139Z,25.97
2018-07-24T14:41:46.478Z,26.68
2018-07-24T14:44:15.215Z,25.77
2018-07-24T14:46:44.259Z,24.30
2018-07-24T14:49:13.003Z,22.97
2018-07-24T14:51:41.634Z,22.57
2018-07-24T14:54:10.637Z,22.30
2018-07-24T14:56:39.428Z,21.51
2018-07-24T14:59:08.325Z,20.39
2018-07-24T15:01:37.030Z,20.56
2018-07-24T15:04:08.081Z,20.11
2018-07-24T15:06:37.859Z,19.25
2018-07-24T15:09:09.898Z,18.86
2018-07-24T15:11:39.603Z,20.62
2018-07-24T15:14:09.043Z,20.04
2018-07-24T15:16:37.683Z,20.33
2018-07-24T15:19:06.420Z,20.39
2018-07-24T15:21:42.017Z,19.23
2018-07-24T15:24:29.659Z,18.73
2018-07-24T15:39:54.503Z,18.78
2018-07-24T15:42:23.284Z,18.44
2018-07-24T15:44:53.531Z,17.63
2018-07-24T15:47:22.767Z,17.31
2018-07-24T15:49:51.653Z,18.23
2018-07-24T15:52:20.318Z,19.56
2018-07-24T15:54:48.991Z,18.09
2018-07-24T15:57:17.742Z,18.45
2018-07-24T15:59:46.774Z,17.67
2018-07-24T16:02:15.566Z,19.75
2018-07-24T16:04:48.543Z,20.36
2018-07-24T16:07:17.438Z,19.81
2018-07-24T16:09:49.204Z,18.44
2018-07-24T16:12:19.412Z,18.24
2018-07-24T16:14:49.518Z,18.67
2018-07-24T16:17:19.503Z,18.05
2018-07-24T16:19:49.526Z,17.52
2018-07-24T16:22:20.105Z,17.08
2018-07-24T16:24:49.865Z,17.48
2018-07-24T16:27:18.675Z,17.48
2018-07-24T16:29:47.381Z,18.05
2018-07-24T16:32:16.250Z,18.53
2018-07-24T16:34:45.648Z,17.45
2018-07-24T16:37:14.694Z,17.13
2018-07-24T16:39:43.286Z,18.00
2018-07-24T16:42:12.760Z,17.40
2018-07-24T16:44:41.454Z,16.63
2018-07-24T16:47:10.168Z,16.70
2018-07-24T16:49:38.917Z,17.16
2018-07-24T16:52:07.682Z,16.91
2018-07-24T16:54:36.443Z,17.87
2018-07-24T16:57:05.399Z,16.76
2018-07-24T16:59:34.493Z,16.86
2018-07-24T17:02:04.349Z,17.53
2018-07-24T17:04:33.058Z,17.80
2018-07-24T17:07:02.331Z,17.86
2018-07-24T17:09:31.623Z,18.11
2018-07-24T17:12:00.379Z,17.12
2018-07-24T17:14:29.161Z,18.22
2018-07-24T17:16:58.246Z,18.79
2018-07-24T17:19:29.920Z,18.69
2018-07-24T17:22:11.215Z,19.47
2018-07-24T17:24:40.514Z,19.93
2018-07-24T17:27:10.757Z,19.03
2018-07-24T17:29:40.172Z,19.42
2018-07-24T17:32:09.270Z,19.95
2018-07-24T17:34:37.968Z,20.71
2018-07-24T17:37:06.863Z,21.22
2018-07-24T17:39:37.140Z,23.44
2018-07-24T17:42:06.028Z,24.78
2018-07-24T17:44:36.035Z,26.00
2018-07-24T17:47:05.290Z,27.40
2018-07-24T17:49:35.045Z,29.30
2018-07-24T17:52:05.709Z,30.16
2018-07-24T17:54:34.859Z,31.84
2018-07-24T17:57:05.238Z,34.03
2018-07-24T17:59:34.823Z,34.82
2018-07-24T18:02:03.608Z,37.08
2018-07-24T18:04:32.538Z,38.05
2018-07-24T18:07:01.351Z,38.63
2018-07-24T18:09:30.054Z,39.01
2018-07-24T18:11:59.104Z,39.54
2018-07-24T18:14:27.782Z,40.06
2018-07-24T18:16:56.522Z,40.09
2018-07-24T18:19:25.618Z,40.75
2018-07-24T18:21:54.278Z,41.33
2018-07-24T18:24:23.111Z,42.18
2018-07-24T18:26:51.965Z,41.93
2018-07-24T18:29:21.080Z,41.90
2018-07-24T18:31:49.824Z,42.02
2018-07-24T18:34:18.608Z,42.96
2018-07-24T18:36:47.313Z,42.66
2018-07-24T18:39:16.086Z,42.89
2018-07-24T18:41:44.889Z,42.62
2018-07-24T18:44:13.966Z,43.05
2018-07-24T18:46:42.754Z,43.47
2018-07-24T18:49:11.592Z,43.85
2018-07-24T18:51:40.437Z,44.36
2018-07-24T18:54:09.428Z,44.06
2018-07-24T18:56:38.260Z,43.85
2018-07-24T18:59:08.013Z,43.72
2018-07-24T19:01:37.075Z,43.86
2018-07-24T19:04:06.012Z,43.86
2018-07-24T19:06:34.880Z,44.48
2018-07-24T19:09:03.907Z,44.48
2018-07-24T19:11:32.765Z,44.42
2018-07-24T19:14:01.641Z,44.61
2018-07-24T19:16:31.225Z,44.26
2018-07-24T19:19:00.254Z,44.33
2018-07-24T19:21:28.971Z,44.42
2018-07-24T19:23:57.945Z,44.72
2018-07-24T19:26:26.698Z,44.41
2018-07-24T19:28:55.515Z,44.14
2018-07-24T19:31:24.295Z,44.74
2018-07-24T19:33:53.136Z,44.41
2018-07-24T19:36:21.888Z,44.88
2018-07-24T19:38:50.778Z,44.55
2018-07-24T19:41:19.523Z,44.73
2018-07-24T19:43:48.256Z,44.69
2018-07-24T19:46:17.362Z,44.54
2018-07-24T19:48:46.174Z,44.62
2018-07-24T19:51:14.828Z,45.01
2018-07-24T19:53:43.686Z,44.78
2018-07-24T19:56:12.394Z,45.10
2018-07-24T19:58:41.148Z,45.02
2018-07-24T20:01:09.840Z,45.20
2018-07-24T20:03:38.547Z,45.20
2018-07-24T20:06:08.056Z,45.45
2018-07-24T20:08:36.770Z,45.34
2018-07-24T20:11:06.058Z,45.30
2018-07-24T20:13:34.765Z,46.24
2018-07-24T20:16:04.257Z,45.50
2018-07-24T20:18:34.133Z,45.62
2018-07-24T20:21:03.486Z,45.85
2018-07-24T20:23:32.835Z,46.16
2018-07-24T20:26:02.139Z,46.74
2018-07-24T20:28:31.019Z,47.48
2018-07-24T20:30:59.741Z,47.42
2018-07-24T20:33:29.794Z,47.67
2018-07-24T20:35:58.589Z,47.79
2018-07-24T20:38:27.454Z,48.23
2018-07-24T20:40:56.709Z,48.35
2018-07-24T20:43:25.327Z,48.49
2018-07-24T20:45:54.138Z,48.65
2018-07-24T20:48:22.929Z,49.05
2018-07-24T20:50:51.687Z,49.66
2018-07-24T20:53:20.371Z,49.83
2018-07-24T20:55:49.064Z,49.91
2018-07-24T20:58:17.874Z,50.15
2018-07-24T21:00:46.542Z,50.56
2018-07-24T21:03:15.283Z,50.60
2018-07-24T21:05:44.220Z,50.93
2018-07-24T21:08:12.925Z,51.19
2018-07-24T21:10:41.585Z,51.67
2018-07-24T21:13:10.384Z,51.41
2018-07-24T21:15:38.984Z,52.34
2018-07-24T21:18:07.710Z,51.90
2018-07-24T21:20:36.523Z,52.50
2018-07-24T21:23:05.241Z,52.49
2018-07-24T21:25:35.431Z,52.95
2018-07-24T21:28:04.049Z,52.89
2018-07-24T21:30:32.773Z,53.15
2018-07-24T21:33:01.394Z,53.78
2018-07-24T21:35:30.094Z,53.64
2018-07-24T21:37:58.897Z,53.84
2018-07-24T21:40:27.549Z,54.79
2018-07-24T21:42:56.260Z,54.54
2018-07-24T21:45:24.925Z,54.84
2018-07-24T21:47:53.602Z,55.43
2018-07-24T21:50:22.257Z,54.98
2018-07-24T21:52:50.952Z,55.81
2018-07-24T21:55:19.590Z,55.92
2018-07-24T21:57:48.251Z,55.25
2018-07-24T22:00:17.055Z,55.98
2018-07-24T22:02:46.305Z,55.18
2018-07-24T22:05:14.987Z,56.13
2018-07-24T22:07:43.678Z,56.25
2018-07-24T22:10:17.518Z,57.16
2018-07-24T22:12:47.571Z,57.20
2018-07-24T22:15:24.122Z,57.24
2018-07-24T22:17:53.142Z,57.02
2018-07-24T22:20:22.224Z,56.76
2018-07-24T22:22:51.324Z,57.75
2018-07-24T22:25:20.253Z,57.68
2018-07-24T22:27:48.906Z,57.47
2018-07-24T22:30:17.610Z,57.54
2018-07-24T22:32:46.228Z,57.32
2018-07-24T22:35:15.077Z,56.85
2018-07-24T22:37:43.781Z,57.64
2018-07-24T22:40:12.721Z,57.02
2018-07-24T22:42:41.484Z,57.13
2018-07-24T22:45:10.170Z,57.28
2018-07-24T22:47:38.882Z,57.15
2018-07-24T22:50:07.685Z,57.43
2018-07-24T22:52:36.332Z,57.23
2018-07-24T22:55:06.396Z,56.55
2018-07-24T22:57:35.059Z,56.21
2018-07-24T23:00:04.266Z,56.32
2018-07-24T23:02:33.219Z,55.80
2018-07-24T23:05:02.083Z,55.27
2018-07-24T23:07:30.717Z,55.44
2018-07-24T23:10:02.190Z,55.14
2018-07-24T23:12:30.915Z,55.23
2018-07-24T23:14:59.648Z,55.80
2018-07-24T23:17:28.250Z,56.35
2018-07-24T23:19:56.946Z,56.37
2018-07-24T23:22:26.036Z,55.77
2018-07-24T23:24:54.701Z,55.29
2018-07-24T23:27:23.371Z,54.88
2018-07-24T23:29:52.020Z,55.74
2018-07-24T23:32:20.733Z,54.84
2018-07-24T23:34:49.395Z,55.21
2018-07-24T23:37:18.097Z,55.09
2018-07-24T23:39:46.707Z,55.27
2018-07-24T23:42:15.374Z,54.34
2018-07-24T23:44:44.014Z,55.32
2018-07-24T23:47:12.878Z,54.39
2018-07-24T23:49:41.707Z,54.64
2018-07-24T23:52:10.336Z,55.29
2018-07-24T23:54:39.055Z,55.57
2018-07-24T23:57:07.734Z,55.25
2018-07-24T23:59:36.527Z,54.53
